sensor_id;sensor_type;location;lat;lon;timestamp;P1;durP1;ratioP1;P2;durP2;ratioP2
66212;SDS011;53015;50.046;8.238;2023-05-07T00:00:46;2.83;;;1.60;;
66212;SDS011;53015;50.046;8.238;2023-05-07T00:03:13;2.47;;;1.30;;
66212;SDS011;53015;50.046;8.238;2023-05-07T00:05:39;1.95;;;1.38;;
66212;SDS011;53015;50.046;8.238;2023-05-07T00:08:04;1.42;;;1.30;;
66212;SDS011;53015;50.046;8.238;2023-05-07T00:10:30;1.73;;;1.30;;
66212;SDS011;53015;50.046;8.238;2023-05-07T00:12:55;1.58;;;1.30;;
66212;SDS011;53015;50.046;8.238;2023-05-07T00:15:21;2.03;;;1.30;;
66212;SDS011;53015;50.046;8.238;2023-05-07T00:17:46;1.83;;;1.33;;
66212;SDS011;53015;50.046;8.238;2023-05-07T00:20:13;3.05;;;1.20;;
66212;SDS011;53015;50.046;8.238;2023-05-07T00:22:39;1.20;;;1.10;;
66212;SDS011;53015;50.046;8.238;2023-05-07T00:25:05;2.15;;;1.40;;
66212;SDS011;53015;50.046;8.238;2023-05-07T00:27:30;1.50;;;1.10;;
66212;SDS011;53015;50.046;8.238;2023-05-07T00:29:56;2.00;;;1.10;;
66212;SDS011;53015;50.046;8.238;2023-05-07T00:32:21;1.60;;;1.00;;
66212;SDS011;53015;50.046;8.238;2023-05-07T00:34:47;1.33;;;1.00;;
66212;SDS011;53015;50.046;8.238;2023-05-07T00:37:14;1.77;;;1.08;;
66212;SDS011;53015;50.046;8.238;2023-05-07T00:39:39;2.97;;;1.25;;
66212;SDS011;53015;50.046;8.238;2023-05-07T00:42:05;1.77;;;1.33;;
66212;SDS011;53015;50.046;8.238;2023-05-07T00:44:30;3.78;;;1.27;;
66212;SDS011;53015;50.046;8.238;2023-05-07T00:46:56;1.10;;;0.90;;
66212;SDS011;53015;50.046;8.238;2023-05-07T00:49:22;2.60;;;1.35;;
66212;SDS011;53015;50.046;8.238;2023-05-07T00:51:52;2.15;;;1.10;;
66212;SDS011;53015;50.046;8.238;2023-05-07T00:54:19;1.40;;;1.20;;
66212;SDS011;53015;50.046;8.238;2023-05-07T00:56:45;1.42;;;1.10;;
66212;SDS011;53015;50.046;8.238;2023-05-07T00:59:10;1.13;;;0.82;;
66212;SDS011;53015;50.046;8.238;2023-05-07T01:01:36;1.50;;;1.25;;
66212;SDS011;53015;50.046;8.238;2023-05-07T01:04:01;3.75;;;1.48;;
66212;SDS011;53015;50.046;8.238;2023-05-07T01:06:27;1.20;;;1.10;;
66212;SDS011;53015;50.046;8.238;2023-05-07T01:08:54;1.27;;;1.08;;
66212;SDS011;53015;50.046;8.238;2023-05-07T01:11:21;1.58;;;1.05;;
66212;SDS011;53015;50.046;8.238;2023-05-07T01:13:47;2.17;;;0.93;;
66212;SDS011;53015;50.046;8.238;2023-05-07T01:16:14;1.40;;;1.15;;
66212;SDS011;53015;50.046;8.238;2023-05-07T01:18:39;1.65;;;0.98;;
66212;SDS011;53015;50.046;8.238;2023-05-07T01:21:05;1.20;;;0.98;;
66212;SDS011;53015;50.046;8.238;2023-05-07T01:23:33;3.22;;;1.30;;
66212;SDS011;53015;50.046;8.238;2023-05-07T01:25:59;1.23;;;0.98;;
66212;SDS011;53015;50.046;8.238;2023-05-07T01:28:24;1.17;;;0.88;;
66212;SDS011;53015;50.046;8.238;2023-05-07T01:30:52;1.80;;;0.82;;
66212;SDS011;53015;50.046;8.238;2023-05-07T01:33:19;1.10;;;1.00;;
66212;SDS011;53015;50.046;8.238;2023-05-07T01:35:46;1.67;;;1.02;;
66212;SDS011;53015;50.046;8.238;2023-05-07T01:38:14;1.00;;;0.90;;
66212;SDS011;53015;50.046;8.238;2023-05-07T01:40:41;1.60;;;0.80;;
66212;SDS011;53015;50.046;8.238;2023-05-07T01:43:07;1.73;;;1.13;;
66212;SDS011;53015;50.046;8.238;2023-05-07T01:45:33;1.50;;;1.10;;
66212;SDS011;53015;50.046;8.238;2023-05-07T01:47:59;1.30;;;1.00;;
66212;SDS011;53015;50.046;8.238;2023-05-07T01:50:26;1.30;;;1.15;;
66212;SDS011;53015;50.046;8.238;2023-05-07T01:52:52;1.10;;;0.90;;
66212;SDS011;53015;50.046;8.238;2023-05-07T01:55:18;2.90;;;1.83;;
66212;SDS011;53015;50.046;8.238;2023-05-07T01:57:45;1.33;;;1.05;;
66212;SDS011;53015;50.046;8.238;2023-05-07T02:00:10;1.40;;;1.00;;
66212;SDS011;53015;50.046;8.238;2023-05-07T02:02:36;1.20;;;0.88;;
66212;SDS011;53015;50.046;8.238;2023-05-07T02:05:02;1.30;;;1.10;;
66212;SDS011;53015;50.046;8.238;2023-05-07T02:07:28;2.22;;;1.10;;
66212;SDS011;53015;50.046;8.238;2023-05-07T02:09:53;1.20;;;0.95;;
66212;SDS011;53015;50.046;8.238;2023-05-07T02:12:19;1.48;;;0.93;;
66212;SDS011;53015;50.046;8.238;2023-05-07T02:14:45;1.20;;;0.85;;
66212;SDS011;53015;50.046;8.238;2023-05-07T02:17:11;0.93;;;0.90;;
66212;SDS011;53015;50.046;8.238;2023-05-07T02:19:36;1.15;;;0.90;;
66212;SDS011;53015;50.046;8.238;2023-05-07T02:22:02;1.05;;;0.98;;
66212;SDS011;53015;50.046;8.238;2023-05-07T02:24:27;0.82;;;0.80;;
66212;SDS011;53015;50.046;8.238;2023-05-07T02:26:53;1.98;;;1.00;;
66212;SDS011;53015;50.046;8.238;2023-05-07T02:29:18;1.00;;;0.85;;
66212;SDS011;53015;50.046;8.238;2023-05-07T02:31:45;2.30;;;0.90;;
66212;SDS011;53015;50.046;8.238;2023-05-07T02:34:10;2.00;;;1.15;;
66212;SDS011;53015;50.046;8.238;2023-05-07T02:36:36;1.10;;;1.00;;
66212;SDS011;53015;50.046;8.238;2023-05-07T02:39:01;2.30;;;0.90;;
66212;SDS011;53015;50.046;8.238;2023-05-07T02:41:27;1.02;;;0.93;;
66212;SDS011;53015;50.046;8.238;2023-05-07T02:43:52;0.90;;;0.90;;
66212;SDS011;53015;50.046;8.238;2023-05-07T02:46:18;1.65;;;1.00;;
66212;SDS011;53015;50.046;8.238;2023-05-07T02:48:44;1.38;;;1.00;;
66212;SDS011;53015;50.046;8.238;2023-05-07T02:51:10;1.00;;;0.90;;
66212;SDS011;53015;50.046;8.238;2023-05-07T02:53:36;1.52;;;1.00;;
66212;SDS011;53015;50.046;8.238;2023-05-07T02:56:01;4.03;;;1.35;;
66212;SDS011;53015;50.046;8.238;2023-05-07T02:58:27;1.73;;;1.08;;
66212;SDS011;53015;50.046;8.238;2023-05-07T03:00:53;2.00;;;1.20;;
66212;SDS011;53015;50.046;8.238;2023-05-07T03:03:19;2.10;;;1.25;;
66212;SDS011;53015;50.046;8.238;2023-05-07T03:05:46;1.52;;;1.10;;
66212;SDS011;53015;50.046;8.238;2023-05-07T03:08:11;0.80;;;0.80;;
66212;SDS011;53015;50.046;8.238;2023-05-07T03:10:37;1.88;;;1.08;;
66212;SDS011;53015;50.046;8.238;2023-05-07T03:13:02;0.90;;;0.90;;
66212;SDS011;53015;50.046;8.238;2023-05-07T03:15:28;1.83;;;1.17;;
66212;SDS011;53015;50.046;8.238;2023-05-07T03:17:54;1.00;;;0.88;;
66212;SDS011;53015;50.046;8.238;2023-05-07T03:20:19;1.13;;;1.02;;
66212;SDS011;53015;50.046;8.238;2023-05-07T03:22:46;2.38;;;1.10;;
66212;SDS011;53015;50.046;8.238;2023-05-07T03:25:12;1.10;;;0.90;;
66212;SDS011;53015;50.046;8.238;2023-05-07T03:27:37;2.30;;;1.30;;
66212;SDS011;53015;50.046;8.238;2023-05-07T03:30:03;1.50;;;1.10;;
66212;SDS011;53015;50.046;8.238;2023-05-07T03:32:29;3.33;;;1.20;;
66212;SDS011;53015;50.046;8.238;2023-05-07T03:34:55;1.50;;;0.90;;
66212;SDS011;53015;50.046;8.238;2023-05-07T03:37:21;1.75;;;1.05;;
66212;SDS011;53015;50.046;8.238;2023-05-07T03:39:48;2.05;;;1.20;;
66212;SDS011;53015;50.046;8.238;2023-05-07T03:42:14;0.90;;;0.80;;
66212;SDS011;53015;50.046;8.238;2023-05-07T03:44:40;1.95;;;1.10;;
66212;SDS011;53015;50.046;8.238;2023-05-07T03:47:05;1.10;;;1.00;;
66212;SDS011;53015;50.046;8.238;2023-05-07T03:49:31;1.05;;;0.85;;
66212;SDS011;53015;50.046;8.238;2023-05-07T03:51:56;1.10;;;1.00;;
66212;SDS011;53015;50.046;8.238;2023-05-07T03:54:22;2.45;;;1.15;;
66212;SDS011;53015;50.046;8.238;2023-05-07T03:56:49;1.13;;;1.00;;
66212;SDS011;53015;50.046;8.238;2023-05-07T03:59:14;1.30;;;1.10;;
66212;SDS011;53015;50.046;8.238;2023-05-07T04:01:40;1.35;;;0.98;;
66212;SDS011;53015;50.046;8.238;2023-05-07T04:04:05;2.15;;;1.20;;
66212;SDS011;53015;50.046;8.238;2023-05-07T04:06:31;3.58;;;1.27;;
66212;SDS011;53015;50.046;8.238;2023-05-07T04:08:57;1.20;;;1.10;;
66212;SDS011;53015;50.046;8.238;2023-05-07T04:11:22;1.70;;;1.00;;
66212;SDS011;53015;50.046;8.238;2023-05-07T04:13:50;2.38;;;0.73;;
66212;SDS011;53015;50.046;8.238;2023-05-07T04:16:15;1.00;;;0.90;;
66212;SDS011;53015;50.046;8.238;2023-05-07T04:18:41;3.65;;;0.90;;
66212;SDS011;53015;50.046;8.238;2023-05-07T04:21:13;1.75;;;0.90;;
66212;SDS011;53015;50.046;8.238;2023-05-07T04:23:39;0.82;;;0.82;;
66212;SDS011;53015;50.046;8.238;2023-05-07T04:26:05;2.03;;;0.82;;
66212;SDS011;53015;50.046;8.238;2023-05-07T04:28:30;1.52;;;1.00;;
66212;SDS011;53015;50.046;8.238;2023-05-07T04:30:57;0.70;;;0.70;;
66212;SDS011;53015;50.046;8.238;2023-05-07T04:33:22;0.80;;;0.80;;
66212;SDS011;53015;50.046;8.238;2023-05-07T04:35:48;1.42;;;1.08;;
66212;SDS011;53015;50.046;8.238;2023-05-07T04:38:13;1.05;;;0.95;;
66212;SDS011;53015;50.046;8.238;2023-05-07T04:40:39;0.90;;;0.90;;
66212;SDS011;53015;50.046;8.238;2023-05-07T04:43:04;1.95;;;1.10;;
66212;SDS011;53015;50.046;8.238;2023-05-07T04:45:30;1.25;;;1.00;;
66212;SDS011;53015;50.046;8.238;2023-05-07T04:47:57;1.13;;;1.02;;
66212;SDS011;53015;50.046;8.238;2023-05-07T04:50:22;1.10;;;1.00;;
66212;SDS011;53015;50.046;8.238;2023-05-07T04:52:48;2.28;;;1.20;;
66212;SDS011;53015;50.046;8.238;2023-05-07T04:55:13;1.08;;;1.02;;
66212;SDS011;53015;50.046;8.238;2023-05-07T04:57:39;1.05;;;0.88;;
66212;SDS011;53015;50.046;8.238;2023-05-07T05:00:05;2.22;;;1.20;;
66212;SDS011;53015;50.046;8.238;2023-05-07T05:02:31;1.13;;;1.02;;
66212;SDS011;53015;50.046;8.238;2023-05-07T05:04:58;1.77;;;1.10;;
66212;SDS011;53015;50.046;8.238;2023-05-07T05:07:23;1.75;;;1.00;;
66212;SDS011;53015;50.046;8.238;2023-05-07T05:09:49;1.02;;;1.00;;
66212;SDS011;53015;50.046;8.238;2023-05-07T05:12:14;1.50;;;1.08;;
66212;SDS011;53015;50.046;8.238;2023-05-07T05:14:40;1.17;;;1.08;;
66212;SDS011;53015;50.046;8.238;2023-05-07T05:17:05;0.95;;;0.93;;
66212;SDS011;53015;50.046;8.238;2023-05-07T05:19:31;0.80;;;0.80;;
66212;SDS011;53015;50.046;8.238;2023-05-07T05:21:58;1.27;;;1.17;;
66212;SDS011;53015;50.046;8.238;2023-05-07T05:24:23;1.50;;;1.02;;
66212;SDS011;53015;50.046;8.238;2023-05-07T05:26:49;2.42;;;1.00;;
66212;SDS011;53015;50.046;8.238;2023-05-07T05:29:14;3.75;;;1.20;;
66212;SDS011;53015;50.046;8.238;2023-05-07T05:31:40;1.15;;;1.00;;
66212;SDS011;53015;50.046;8.238;2023-05-07T05:34:05;1.15;;;0.98;;
66212;SDS011;53015;50.046;8.238;2023-05-07T05:36:31;1.60;;;1.10;;
66212;SDS011;53015;50.046;8.238;2023-05-07T05:38:58;2.88;;;0.93;;
66212;SDS011;53015;50.046;8.238;2023-05-07T05:41:23;1.05;;;0.88;;
66212;SDS011;53015;50.046;8.238;2023-05-07T05:43:49;1.67;;;0.90;;
66212;SDS011;53015;50.046;8.238;2023-05-07T05:46:14;1.30;;;0.90;;
66212;SDS011;53015;50.046;8.238;2023-05-07T05:48:40;1.17;;;0.90;;
66212;SDS011;53015;50.046;8.238;2023-05-07T05:51:05;0.95;;;0.95;;
66212;SDS011;53015;50.046;8.238;2023-05-07T05:53:31;1.50;;;1.30;;
66212;SDS011;53015;50.046;8.238;2023-05-07T05:55:57;2.22;;;1.40;;
66212;SDS011;53015;50.046;8.238;2023-05-07T05:58:23;3.45;;;0.90;;
66212;SDS011;53015;50.046;8.238;2023-05-07T06:00:49;1.00;;;1.00;;
66212;SDS011;53015;50.046;8.238;2023-05-07T06:03:15;1.23;;;0.75;;
66212;SDS011;53015;50.046;8.238;2023-05-07T06:05:40;1.10;;;1.00;;
66212;SDS011;53015;50.046;8.238;2023-05-07T06:08:06;1.35;;;0.63;;
66212;SDS011;53015;50.046;8.238;2023-05-07T06:10:31;0.85;;;0.60;;
66212;SDS011;53015;50.046;8.238;2023-05-07T06:12:58;1.00;;;0.90;;
66212;SDS011;53015;50.046;8.238;2023-05-07T06:15:24;0.75;;;0.73;;
66212;SDS011;53015;50.046;8.238;2023-05-07T06:17:49;1.85;;;0.80;;
66212;SDS011;53015;50.046;8.238;2023-05-07T06:20:15;1.65;;;0.80;;
66212;SDS011;53015;50.046;8.238;2023-05-07T06:22:40;1.45;;;0.75;;
66212;SDS011;53015;50.046;8.238;2023-05-07T06:25:06;0.95;;;0.77;;
66212;SDS011;53015;50.046;8.238;2023-05-07T06:27:32;1.50;;;0.70;;
66212;SDS011;53015;50.046;8.238;2023-05-07T06:29:59;2.50;;;0.90;;
66212;SDS011;53015;50.046;8.238;2023-05-07T06:32:25;1.33;;;0.73;;
66212;SDS011;53015;50.046;8.238;2023-05-07T06:34:50;0.90;;;0.80;;
66212;SDS011;53015;50.046;8.238;2023-05-07T06:37:16;1.40;;;0.90;;
66212;SDS011;53015;50.046;8.238;2023-05-07T06:39:41;0.98;;;0.98;;
66212;SDS011;53015;50.046;8.238;2023-05-07T06:42:06;0.95;;;0.90;;
66212;SDS011;53015;50.046;8.238;2023-05-07T06:44:32;0.70;;;0.70;;
66212;SDS011;53015;50.046;8.238;2023-05-07T06:46:59;0.93;;;0.70;;
66212;SDS011;53015;50.046;8.238;2023-05-07T06:49:24;1.95;;;0.73;;
66212;SDS011;53015;50.046;8.238;2023-05-07T06:51:50;0.70;;;0.70;;
66212;SDS011;53015;50.046;8.238;2023-05-07T06:54:15;0.80;;;0.80;;
66212;SDS011;53015;50.046;8.238;2023-05-07T06:56:41;0.80;;;0.70;;
66212;SDS011;53015;50.046;8.238;2023-05-07T06:59:06;5.28;;;1.10;;
66212;SDS011;53015;50.046;8.238;2023-05-07T07:01:32;0.75;;;0.75;;
66212;SDS011;53015;50.046;8.238;2023-05-07T07:03:59;1.67;;;0.90;;
66212;SDS011;53015;50.046;8.238;2023-05-07T07:06:24;2.28;;;1.00;;
66212;SDS011;53015;50.046;8.238;2023-05-07T07:08:50;0.68;;;0.68;;
66212;SDS011;53015;50.046;8.238;2023-05-07T07:11:15;1.02;;;0.90;;
66212;SDS011;53015;50.046;8.238;2023-05-07T07:13:41;0.90;;;0.75;;
66212;SDS011;53015;50.046;8.238;2023-05-07T07:16:07;0.80;;;0.80;;
66212;SDS011;53015;50.046;8.238;2023-05-07T07:18:32;0.80;;;0.80;;
66212;SDS011;53015;50.046;8.238;2023-05-07T07:20:59;1.08;;;0.93;;
66212;SDS011;53015;50.046;8.238;2023-05-07T07:23:24;1.58;;;0.90;;
66212;SDS011;53015;50.046;8.238;2023-05-07T07:25:50;2.90;;;0.80;;
66212;SDS011;53015;50.046;8.238;2023-05-07T07:28:16;1.52;;;1.00;;
66212;SDS011;53015;50.046;8.238;2023-05-07T07:30:42;2.05;;;0.90;;
66212;SDS011;53015;50.046;8.238;2023-05-07T07:33:07;1.00;;;0.90;;
66212;SDS011;53015;50.046;8.238;2023-05-07T07:35:33;1.00;;;0.82;;
66212;SDS011;53015;50.046;8.238;2023-05-07T07:38:00;1.25;;;1.00;;
66212;SDS011;53015;50.046;8.238;2023-05-07T07:40:25;1.65;;;1.13;;
66212;SDS011;53015;50.046;8.238;2023-05-07T07:42:51;1.65;;;1.00;;
66212;SDS011;53015;50.046;8.238;2023-05-07T07:45:16;1.00;;;0.90;;
66212;SDS011;53015;50.046;8.238;2023-05-07T07:47:42;0.80;;;0.80;;
66212;SDS011;53015;50.046;8.238;2023-05-07T07:50:08;1.95;;;1.10;;
66212;SDS011;53015;50.046;8.238;2023-05-07T07:52:34;2.10;;;0.80;;
66212;SDS011;53015;50.046;8.238;2023-05-07T07:55:01;0.98;;;0.98;;
66212;SDS011;53015;50.046;8.238;2023-05-07T07:57:27;1.13;;;0.98;;
66212;SDS011;53015;50.046;8.238;2023-05-07T07:59:52;1.27;;;1.00;;
66212;SDS011;53015;50.046;8.238;2023-05-07T08:02:18;1.75;;;0.90;;
66212;SDS011;53015;50.046;8.238;2023-05-07T08:04:44;1.00;;;0.90;;
66212;SDS011;53015;50.046;8.238;2023-05-07T08:07:09;3.08;;;1.10;;
66212;SDS011;53015;50.046;8.238;2023-05-07T08:09:35;1.00;;;1.00;;
66212;SDS011;53015;50.046;8.238;2023-05-07T08:12:03;0.95;;;0.95;;
66212;SDS011;53015;50.046;8.238;2023-05-07T08:14:29;1.13;;;0.80;;
66212;SDS011;53015;50.046;8.238;2023-05-07T08:16:55;1.25;;;1.00;;
66212;SDS011;53015;50.046;8.238;2023-05-07T08:19:20;1.23;;;1.00;;
66212;SDS011;53015;50.046;8.238;2023-05-07T08:21:46;1.60;;;1.00;;
66212;SDS011;53015;50.046;8.238;2023-05-07T08:24:11;1.88;;;1.30;;
66212;SDS011;53015;50.046;8.238;2023-05-07T08:26:36;1.92;;;1.17;;
66212;SDS011;53015;50.046;8.238;2023-05-07T08:29:03;1.48;;;1.17;;
66212;SDS011;53015;50.046;8.238;2023-05-07T08:31:29;1.65;;;1.30;;
66212;SDS011;53015;50.046;8.238;2023-05-07T08:33:54;1.30;;;1.13;;
66212;SDS011;53015;50.046;8.238;2023-05-07T08:36:20;1.23;;;1.13;;
66212;SDS011;53015;50.046;8.238;2023-05-07T08:38:45;1.02;;;1.00;;
66212;SDS011;53015;50.046;8.238;2023-05-07T08:41:11;1.20;;;1.10;;
66212;SDS011;53015;50.046;8.238;2023-05-07T08:43:36;1.48;;;1.30;;
66212;SDS011;53015;50.046;8.238;2023-05-07T08:46:06;1.30;;;0.98;;
66212;SDS011;53015;50.046;8.238;2023-05-07T08:48:34;1.50;;;1.40;;
66212;SDS011;53015;50.046;8.238;2023-05-07T08:51:00;3.95;;;1.10;;
66212;SDS011;53015;50.046;8.238;2023-05-07T08:53:25;2.15;;;1.42;;
66212;SDS011;53015;50.046;8.238;2023-05-07T08:55:51;2.00;;;1.30;;
66212;SDS011;53015;50.046;8.238;2023-05-07T08:58:18;1.45;;;1.10;;
66212;SDS011;53015;50.046;8.238;2023-05-07T09:00:43;3.72;;;1.35;;
66212;SDS011;53015;50.046;8.238;2023-05-07T09:03:10;1.20;;;1.10;;
66212;SDS011;53015;50.046;8.238;2023-05-07T09:05:36;1.23;;;1.10;;
66212;SDS011;53015;50.046;8.238;2023-05-07T09:08:01;1.50;;;1.25;;
66212;SDS011;53015;50.046;8.238;2023-05-07T09:10:28;1.30;;;1.20;;
66212;SDS011;53015;50.046;8.238;2023-05-07T09:12:54;4.28;;;1.40;;
66212;SDS011;53015;50.046;8.238;2023-05-07T09:15:20;1.13;;;1.02;;
66212;SDS011;53015;50.046;8.238;2023-05-07T09:17:45;1.30;;;1.20;;
66212;SDS011;53015;50.046;8.238;2023-05-07T09:20:13;2.33;;;1.13;;
66212;SDS011;53015;50.046;8.238;2023-05-07T09:22:38;2.20;;;1.20;;
66212;SDS011;53015;50.046;8.238;2023-05-07T09:25:04;1.20;;;1.10;;
66212;SDS011;53015;50.046;8.238;2023-05-07T09:27:31;1.60;;;1.27;;
66212;SDS011;53015;50.046;8.238;2023-05-07T09:29:56;1.27;;;1.13;;
66212;SDS011;53015;50.046;8.238;2023-05-07T09:32:22;1.67;;;1.38;;
66212;SDS011;53015;50.046;8.238;2023-05-07T09:34:47;3.85;;;1.80;;
66212;SDS011;53015;50.046;8.238;2023-05-07T09:37:14;1.83;;;1.33;;
66212;SDS011;53015;50.046;8.238;2023-05-07T09:39:41;1.35;;;1.25;;
66212;SDS011;53015;50.046;8.238;2023-05-07T09:42:07;1.60;;;1.30;;
66212;SDS011;53015;50.046;8.238;2023-05-07T09:44:33;2.22;;;1.40;;
66212;SDS011;53015;50.046;8.238;2023-05-07T09:46:59;1.52;;;1.30;;
66212;SDS011;53015;50.046;8.238;2023-05-07T09:49:25;2.05;;;1.42;;
66212;SDS011;53015;50.046;8.238;2023-05-07T09:51:54;3.50;;;1.40;;
66212;SDS011;53015;50.046;8.238;2023-05-07T09:54:21;1.33;;;1.23;;
66212;SDS011;53015;50.046;8.238;2023-05-07T09:56:47;3.63;;;1.60;;
66212;SDS011;53015;50.046;8.238;2023-05-07T09:59:14;2.67;;;1.40;;
66212;SDS011;53015;50.046;8.238;2023-05-07T10:01:41;3.05;;;1.55;;
66212;SDS011;53015;50.046;8.238;2023-05-07T10:04:07;3.13;;;1.65;;
66212;SDS011;53015;50.046;8.238;2023-05-07T10:06:32;1.80;;;1.70;;
66212;SDS011;53015;50.046;8.238;2023-05-07T10:08:59;1.55;;;1.45;;
66212;SDS011;53015;50.046;8.238;2023-05-07T10:11:26;1.52;;;1.42;;
66212;SDS011;53015;50.046;8.238;2023-05-07T10:13:53;1.70;;;1.60;;
66212;SDS011;53015;50.046;8.238;2023-05-07T10:16:18;1.95;;;1.33;;
66212;SDS011;53015;50.046;8.238;2023-05-07T10:18:44;1.63;;;1.42;;
66212;SDS011;53015;50.046;8.238;2023-05-07T10:21:11;2.00;;;1.30;;
66212;SDS011;53015;50.046;8.238;2023-05-07T10:23:41;1.88;;;1.50;;
66212;SDS011;53015;50.046;8.238;2023-05-07T10:26:10;2.15;;;1.50;;
66212;SDS011;53015;50.046;8.238;2023-05-07T10:28:39;1.98;;;1.48;;
66212;SDS011;53015;50.046;8.238;2023-05-07T10:31:15;1.60;;;1.50;;
66212;SDS011;53015;50.046;8.238;2023-05-07T10:33:50;2.35;;;1.55;;
66212;SDS011;53015;50.046;8.238;2023-05-07T10:36:17;1.50;;;1.40;;
66212;SDS011;53015;50.046;8.238;2023-05-07T10:38:44;2.83;;;1.63;;
66212;SDS011;53015;50.046;8.238;2023-05-07T10:41:10;2.25;;;1.45;;
66212;SDS011;53015;50.046;8.238;2023-05-07T10:43:41;1.50;;;1.40;;
66212;SDS011;53015;50.046;8.238;2023-05-07T10:46:11;2.28;;;1.65;;
66212;SDS011;53015;50.046;8.238;2023-05-07T10:51:35;1.77;;;1.40;;
66212;SDS011;53015;50.046;8.238;2023-05-07T10:54:19;2.20;;;1.58;;
66212;SDS011;53015;50.046;8.238;2023-05-07T10:56:46;1.30;;;1.20;;
66212;SDS011;53015;50.046;8.238;2023-05-07T10:59:32;2.13;;;1.50;;
66212;SDS011;53015;50.046;8.238;2023-05-07T11:01:59;1.60;;;1.50;;
66212;SDS011;53015;50.046;8.238;2023-05-07T11:04:25;1.77;;;1.60;;
66212;SDS011;53015;50.046;8.238;2023-05-07T11:09:55;1.67;;;1.58;;
66212;SDS011;53015;50.046;8.238;2023-05-07T11:12:47;2.15;;;1.60;;
66212;SDS011;53015;50.046;8.238;2023-05-07T11:18:17;1.70;;;1.60;;
66212;SDS011;53015;50.046;8.238;2023-05-07T11:20:50;1.50;;;1.40;;
66212;SDS011;53015;50.046;8.238;2023-05-07T11:26:20;1.45;;;1.35;;
66212;SDS011;53015;50.046;8.238;2023-05-07T11:28:46;1.70;;;1.50;;
66212;SDS011;53015;50.046;8.238;2023-05-07T11:31:13;1.50;;;1.40;;
66212;SDS011;53015;50.046;8.238;2023-05-07T11:33:38;1.40;;;1.30;;
66212;SDS011;53015;50.046;8.238;2023-05-07T11:36:05;2.13;;;1.60;;
66212;SDS011;53015;50.046;8.238;2023-05-07T11:38:34;2.00;;;1.60;;
66212;SDS011;53015;50.046;8.238;2023-05-07T11:41:00;1.70;;;1.60;;
66212;SDS011;53015;50.046;8.238;2023-05-07T11:43:26;2.58;;;1.70;;
66212;SDS011;53015;50.046;8.238;2023-05-07T11:45:52;1.60;;;1.50;;
66212;SDS011;53015;50.046;8.238;2023-05-07T11:48:19;1.58;;;1.48;;
66212;SDS011;53015;50.046;8.238;2023-05-07T11:50:50;1.50;;;1.40;;
66212;SDS011;53015;50.046;8.238;2023-05-07T11:53:15;1.67;;;1.55;;
66212;SDS011;53015;50.046;8.238;2023-05-07T11:55:41;2.75;;;1.67;;
66212;SDS011;53015;50.046;8.238;2023-05-07T11:58:07;1.63;;;1.52;;
66212;SDS011;53015;50.046;8.238;2023-05-07T12:00:35;1.60;;;1.50;;
66212;SDS011;53015;50.046;8.238;2023-05-07T12:03:03;1.60;;;1.50;;
66212;SDS011;53015;50.046;8.238;2023-05-07T12:05:30;2.05;;;1.80;;
66212;SDS011;53015;50.046;8.238;2023-05-07T12:07:56;2.05;;;1.70;;
66212;SDS011;53015;50.046;8.238;2023-05-07T12:10:22;2.00;;;1.77;;
66212;SDS011;53015;50.046;8.238;2023-05-07T12:12:47;1.80;;;1.70;;
66212;SDS011;53015;50.046;8.238;2023-05-07T12:15:15;3.13;;;1.83;;
66212;SDS011;53015;50.046;8.238;2023-05-07T12:17:41;2.00;;;1.70;;
66212;SDS011;53015;50.046;8.238;2023-05-07T12:20:07;1.40;;;1.30;;
66212;SDS011;53015;50.046;8.238;2023-05-07T12:22:35;1.70;;;1.40;;
66212;SDS011;53015;50.046;8.238;2023-05-07T12:25:01;1.58;;;1.48;;
66212;SDS011;53015;50.046;8.238;2023-05-07T12:27:27;1.98;;;1.58;;
66212;SDS011;53015;50.046;8.238;2023-05-07T12:29:52;1.70;;;1.60;;
66212;SDS011;53015;50.046;8.238;2023-05-07T12:32:19;1.42;;;1.33;;
66212;SDS011;53015;50.046;8.238;2023-05-07T12:34:46;2.20;;;1.58;;
66212;SDS011;53015;50.046;8.238;2023-05-07T12:37:14;1.95;;;1.60;;
66212;SDS011;53015;50.046;8.238;2023-05-07T12:39:46;1.65;;;1.55;;
66212;SDS011;53015;50.046;8.238;2023-05-07T12:42:14;2.45;;;1.33;;
66212;SDS011;53015;50.046;8.238;2023-05-07T12:44:41;1.40;;;1.30;;
66212;SDS011;53015;50.046;8.238;2023-05-07T12:47:10;2.67;;;1.63;;
66212;SDS011;53015;50.046;8.238;2023-05-07T12:49:35;1.60;;;1.50;;
66212;SDS011;53015;50.046;8.238;2023-05-07T12:52:01;1.77;;;1.60;;
66212;SDS011;53015;50.046;8.238;2023-05-07T12:54:30;1.60;;;1.50;;
66212;SDS011;53015;50.046;8.238;2023-05-07T12:57:01;2.97;;;1.40;;
66212;SDS011;53015;50.046;8.238;2023-05-07T12:59:30;2.13;;;1.93;;
66212;SDS011;53015;50.046;8.238;2023-05-07T13:01:56;1.50;;;1.40;;
66212;SDS011;53015;50.046;8.238;2023-05-07T13:04:24;2.10;;;1.40;;
66212;SDS011;53015;50.046;8.238;2023-05-07T13:06:49;1.13;;;0.95;;
66212;SDS011;53015;50.046;8.238;2023-05-07T13:09:15;1.08;;;0.98;;
66212;SDS011;53015;50.046;8.238;2023-05-07T13:11:40;1.38;;;0.98;;
66212;SDS011;53015;50.046;8.238;2023-05-07T13:14:07;3.08;;;0.95;;
66212;SDS011;53015;50.046;8.238;2023-05-07T13:16:32;0.90;;;0.90;;
66212;SDS011;53015;50.046;8.238;2023-05-07T13:18:58;1.30;;;1.20;;
66212;SDS011;53015;50.046;8.238;2023-05-07T13:21:23;2.13;;;1.45;;
66212;SDS011;53015;50.046;8.238;2023-05-07T13:23:49;2.17;;;1.90;;
66212;SDS011;53015;50.046;8.238;2023-05-07T13:26:14;1.42;;;1.30;;
66212;SDS011;53015;50.046;8.238;2023-05-07T13:28:40;1.40;;;1.30;;
66212;SDS011;53015;50.046;8.238;2023-05-07T13:31:07;1.40;;;1.30;;
66212;SDS011;53015;50.046;8.238;2023-05-07T13:33:32;1.58;;;1.40;;
66212;SDS011;53015;50.046;8.238;2023-05-07T13:35:58;1.95;;;1.45;;
66212;SDS011;53015;50.046;8.238;2023-05-07T13:38:23;1.40;;;1.30;;
66212;SDS011;53015;50.046;8.238;2023-05-07T13:40:49;1.65;;;1.10;;
66212;SDS011;53015;50.046;8.238;2023-05-07T13:43:14;2.25;;;1.17;;
66212;SDS011;53015;50.046;8.238;2023-05-07T13:45:40;1.48;;;1.05;;
66212;SDS011;53015;50.046;8.238;2023-05-07T13:48:07;1.20;;;1.10;;
66212;SDS011;53015;50.046;8.238;2023-05-07T13:50:33;0.90;;;0.82;;
66212;SDS011;53015;50.046;8.238;2023-05-07T13:52:59;1.05;;;0.95;;
66212;SDS011;53015;50.046;8.238;2023-05-07T13:55:24;0.80;;;0.80;;
66212;SDS011;53015;50.046;8.238;2023-05-07T13:57:54;0.93;;;0.90;;
66212;SDS011;53015;50.046;8.238;2023-05-07T14:00:20;0.90;;;0.90;;
66212;SDS011;53015;50.046;8.238;2023-05-07T14:02:46;0.90;;;0.90;;
66212;SDS011;53015;50.046;8.238;2023-05-07T14:05:13;1.88;;;1.30;;
66212;SDS011;53015;50.046;8.238;2023-05-07T14:07:38;1.00;;;0.90;;
66212;SDS011;53015;50.046;8.238;2023-05-07T14:10:04;0.90;;;0.90;;
66212;SDS011;53015;50.046;8.238;2023-05-07T14:12:31;2.75;;;0.93;;
66212;SDS011;53015;50.046;8.238;2023-05-07T14:14:56;4.90;;;1.08;;
66212;SDS011;53015;50.046;8.238;2023-05-07T14:17:22;1.50;;;1.10;;
66212;SDS011;53015;50.046;8.238;2023-05-07T14:19:47;1.23;;;1.20;;
66212;SDS011;53015;50.046;8.238;2023-05-07T14:22:14;1.10;;;1.00;;
66212;SDS011;53015;50.046;8.238;2023-05-07T14:24:40;1.20;;;1.10;;
66212;SDS011;53015;50.046;8.238;2023-05-07T14:27:05;2.05;;;1.10;;
66212;SDS011;53015;50.046;8.238;2023-05-07T14:29:31;1.50;;;1.40;;
66212;SDS011;53015;50.046;8.238;2023-05-07T14:31:56;1.20;;;1.08;;
66212;SDS011;53015;50.046;8.238;2023-05-07T14:34:21;2.58;;;1.27;;
66212;SDS011;53015;50.046;8.238;2023-05-07T14:36:47;1.17;;;1.08;;
66212;SDS011;53015;50.046;8.238;2023-05-07T14:39:14;1.10;;;0.85;;
66212;SDS011;53015;50.046;8.238;2023-05-07T14:41:39;1.90;;;1.10;;
66212;SDS011;53015;50.046;8.238;2023-05-07T14:44:05;1.27;;;1.17;;
66212;SDS011;53015;50.046;8.238;2023-05-07T14:46:30;1.45;;;1.35;;
66212;SDS011;53015;50.046;8.238;2023-05-07T14:48:56;1.00;;;1.00;;
66212;SDS011;53015;50.046;8.238;2023-05-07T14:51:21;1.30;;;1.13;;
66212;SDS011;53015;50.046;8.238;2023-05-07T14:53:47;1.10;;;1.00;;